X  Κλείσε Στοιχεία αεροπορικών μετεωρολογικών δεδομένων METAR     LGTS Thessaloniki Macedonia International Airport
θερμοκρασία
21°C θερμοκρασία
19°C Σημείο δρόσου
88% Υγρασία



Ανεμος
10 KM/H
6 MPH
3 M/S
5 KTS



120°
ANA
Τρέχουσες συνθήκες

Μερικώς συννεφιασμένος Μερικώς συννεφιασμένος
πίεση 1018.92 (hPa) - 30.09 (inHg)
Ορατότητα 6.2 (μίλι) - 10 (km)
Aεροδρόμιο
Κωδικός αεροδρομίου LGTS

Τοποθεσία: Thessaloniki Macedonia International Airport
Απόσταση: 85 (km)

Metar:
LGTS 212220Z 12005KT 9999 FEW018CB SCT025 21/19 Q1019 RETS NOSIG

ώρα: 22-09-2021 01:20 EEST